Aviation Digital Data Service (ADDS)

Output produced by TAFs form (0606 UTC 01 November 2014)
found at http://www.aviationweather.gov/adds/tafs/
 
KABE 010520Z 0106/0206 03010KT P6SM OVC040 
     TEMPO 0106/0110 5SM -SHRA OVC020 
     FM011000 35008G16KT P6SM VCSH OVC025 
     FM011800 35012G20KT P6SM OVC035 
     FM020000 34014G24KT P6SM OVC050